sensor_id;sensor_type;location;lat;lon;timestamp;temperature;humidity
79698;SHT31;69168;42.708;23.286;2024-02-23T00:01:34;8.21;59.80
79698;SHT31;69168;42.708;23.286;2024-02-23T00:04:00;8.23;59.63
79698;SHT31;69168;42.708;23.286;2024-02-23T00:06:28;8.15;59.71
79698;SHT31;69168;42.708;23.286;2024-02-23T00:08:54;8.21;59.41
79698;SHT31;69168;42.708;23.286;2024-02-23T00:11:20;8.15;59.98
79698;SHT31;69168;42.708;23.286;2024-02-23T00:13:46;8.13;60.29
79698;SHT31;69168;42.708;23.286;2024-02-23T00:16:12;8.13;59.84
79698;SHT31;69168;42.708;23.286;2024-02-23T00:18:38;8.02;60.05
79698;SHT31;69168;42.708;23.286;2024-02-23T00:21:04;8.10;60.29
79698;SHT31;69168;42.708;23.286;2024-02-23T00:23:29;8.28;59.60
79698;SHT31;69168;42.708;23.286;2024-02-23T00:25:55;8.15;59.80
79698;SHT31;69168;42.708;23.286;2024-02-23T00:28:21;8.08;60.10
79698;SHT31;69168;42.708;23.286;2024-02-23T00:30:46;8.10;59.87
79698;SHT31;69168;42.708;23.286;2024-02-23T00:33:12;8.03;60.45
79698;SHT31;69168;42.708;23.286;2024-02-23T00:35:37;7.99;60.40
79698;SHT31;69168;42.708;23.286;2024-02-23T00:38:03;8.13;59.84
79698;SHT31;69168;42.708;23.286;2024-02-23T00:40:29;8.30;58.91
79698;SHT31;69168;42.708;23.286;2024-02-23T00:42:55;8.22;59.19
79698;SHT31;69168;42.708;23.286;2024-02-23T00:45:20;8.15;59.84
79698;SHT31;69168;42.708;23.286;2024-02-23T00:47:46;8.15;60.00
79698;SHT31;69168;42.708;23.286;2024-02-23T00:50:12;8.19;59.57
79698;SHT31;69168;42.708;23.286;2024-02-23T00:52:38;8.13;59.53
79698;SHT31;69168;42.708;23.286;2024-02-23T00:55:04;8.09;60.80
79698;SHT31;69168;42.708;23.286;2024-02-23T00:57:29;8.15;60.02
79698;SHT31;69168;42.708;23.286;2024-02-23T00:59:58;8.05;60.26
79698;SHT31;69168;42.708;23.286;2024-02-23T01:02:24;8.03;60.27
79698;SHT31;69168;42.708;23.286;2024-02-23T01:04:49;8.06;60.19
79698;SHT31;69168;42.708;23.286;2024-02-23T01:07:15;7.99;60.20
79698;SHT31;69168;42.708;23.286;2024-02-23T01:09:40;8.10;60.02
79698;SHT31;69168;42.708;23.286;2024-02-23T01:12:06;8.42;58.83
79698;SHT31;69168;42.708;23.286;2024-02-23T01:14:31;8.26;58.97
79698;SHT31;69168;42.708;23.286;2024-02-23T01:16:57;8.16;59.72
79698;SHT31;69168;42.708;23.286;2024-02-23T01:19:22;8.12;59.77
79698;SHT31;69168;42.708;23.286;2024-02-23T01:21:49;8.15;59.64
79698;SHT31;69168;42.708;23.286;2024-02-23T01:24:20;8.17;59.02
79698;SHT31;69168;42.708;23.286;2024-02-23T01:26:46;8.10;59.61
79698;SHT31;69168;42.708;23.286;2024-02-23T01:29:11;7.96;60.40
79698;SHT31;69168;42.708;23.286;2024-02-23T01:31:37;7.88;60.91
79698;SHT31;69168;42.708;23.286;2024-02-23T01:34:03;8.44;59.10
79698;SHT31;69168;42.708;23.286;2024-02-23T01:36:28;8.40;58.48
79698;SHT31;69168;42.708;23.286;2024-02-23T01:38:54;8.16;58.99
79698;SHT31;69168;42.708;23.286;2024-02-23T01:41:20;8.02;59.89
79698;SHT31;69168;42.708;23.286;2024-02-23T01:43:45;7.88;60.74
79698;SHT31;69168;42.708;23.286;2024-02-23T01:46:11;7.89;60.68
79698;SHT31;69168;42.708;23.286;2024-02-23T01:48:37;8.08;60.04
79698;SHT31;69168;42.708;23.286;2024-02-23T01:51:02;7.98;60.02
79698;SHT31;69168;42.708;23.286;2024-02-23T01:53:28;7.85;60.86
79698;SHT31;69168;42.708;23.286;2024-02-23T01:55:54;7.89;60.69
79698;SHT31;69168;42.708;23.286;2024-02-23T01:58:21;8.06;60.23
79698;SHT31;69168;42.708;23.286;2024-02-23T02:00:46;7.89;60.44
79698;SHT31;69168;42.708;23.286;2024-02-23T02:03:12;7.84;60.82
79698;SHT31;69168;42.708;23.286;2024-02-23T02:05:37;7.84;61.02
79698;SHT31;69168;42.708;23.286;2024-02-23T02:08:04;7.84;61.01
79698;SHT31;69168;42.708;23.286;2024-02-23T02:10:29;7.70;61.58
79698;SHT31;69168;42.708;23.286;2024-02-23T02:12:55;7.66;61.84
79698;SHT31;69168;42.708;23.286;2024-02-23T02:15:20;7.99;60.08
79698;SHT31;69168;42.708;23.286;2024-02-23T02:17:47;7.92;60.14
79698;SHT31;69168;42.708;23.286;2024-02-23T02:20:13;7.84;60.65
79698;SHT31;69168;42.708;23.286;2024-02-23T02:22:39;7.87;61.01
79698;SHT31;69168;42.708;23.286;2024-02-23T02:25:05;7.79;61.05
79698;SHT31;69168;42.708;23.286;2024-02-23T02:27:31;7.66;61.69
79698;SHT31;69168;42.708;23.286;2024-02-23T02:29:57;7.56;61.83
79698;SHT31;69168;42.708;23.286;2024-02-23T02:32:23;7.96;60.66
79698;SHT31;69168;42.708;23.286;2024-02-23T02:34:48;7.88;60.55
79698;SHT31;69168;42.708;23.286;2024-02-23T02:37:14;7.70;61.17
79698;SHT31;69168;42.708;23.286;2024-02-23T02:39:40;7.61;61.70
79698;SHT31;69168;42.708;23.286;2024-02-23T02:42:06;7.91;61.32
79698;SHT31;69168;42.708;23.286;2024-02-23T02:44:31;7.70;61.40
79698;SHT31;69168;42.708;23.286;2024-02-23T02:46:57;7.77;61.46
79698;SHT31;69168;42.708;23.286;2024-02-23T02:49:23;7.64;62.04
79698;SHT31;69168;42.708;23.286;2024-02-23T02:51:49;7.59;62.28
79698;SHT31;69168;42.708;23.286;2024-02-23T02:54:14;7.64;62.07
79698;SHT31;69168;42.708;23.286;2024-02-23T02:56:43;7.85;61.43
79698;SHT31;69168;42.708;23.286;2024-02-23T02:59:09;7.70;61.63
79698;SHT31;69168;42.708;23.286;2024-02-23T03:01:35;7.53;62.62
79698;SHT31;69168;42.708;23.286;2024-02-23T03:04:01;7.49;62.74
79698;SHT31;69168;42.708;23.286;2024-02-23T03:06:27;7.50;62.86
79698;SHT31;69168;42.708;23.286;2024-02-23T03:08:52;7.66;62.42
79698;SHT31;69168;42.708;23.286;2024-02-23T03:11:18;7.60;62.62
79698;SHT31;69168;42.708;23.286;2024-02-23T03:13:43;7.57;62.96
79698;SHT31;69168;42.708;23.286;2024-02-23T03:16:18;7.75;62.00
79698;SHT31;69168;42.708;23.286;2024-02-23T03:18:44;7.71;62.01
79698;SHT31;69168;42.708;23.286;2024-02-23T03:21:10;7.59;62.72
79698;SHT31;69168;42.708;23.286;2024-02-23T03:23:36;7.56;62.85
79698;SHT31;69168;42.708;23.286;2024-02-23T03:26:01;7.43;63.33
79698;SHT31;69168;42.708;23.286;2024-02-23T03:28:28;7.53;63.33
79698;SHT31;69168;42.708;23.286;2024-02-23T03:30:53;7.57;63.00
79698;SHT31;69168;42.708;23.286;2024-02-23T03:33:19;7.49;63.31
79698;SHT31;69168;42.708;23.286;2024-02-23T03:35:45;7.42;63.50
79698;SHT31;69168;42.708;23.286;2024-02-23T03:38:10;7.40;63.73
79698;SHT31;69168;42.708;23.286;2024-02-23T03:40:36;7.79;62.24
79698;SHT31;69168;42.708;23.286;2024-02-23T03:43:02;7.68;62.72
79698;SHT31;69168;42.708;23.286;2024-02-23T03:45:27;7.61;63.15
79698;SHT31;69168;42.708;23.286;2024-02-23T03:47:53;7.63;63.24
79698;SHT31;69168;42.708;23.286;2024-02-23T03:50:19;7.63;63.30
79698;SHT31;69168;42.708;23.286;2024-02-23T03:52:44;7.74;62.89
79698;SHT31;69168;42.708;23.286;2024-02-23T03:55:10;7.60;63.29
79698;SHT31;69168;42.708;23.286;2024-02-23T03:57:36;7.85;62.19
79698;SHT31;69168;42.708;23.286;2024-02-23T04:00:01;7.73;62.82
79698;SHT31;69168;42.708;23.286;2024-02-23T04:02:27;7.66;63.31
79698;SHT31;69168;42.708;23.286;2024-02-23T04:04:53;7.59;63.51
79698;SHT31;69168;42.708;23.286;2024-02-23T04:07:19;7.56;63.58
79698;SHT31;69168;42.708;23.286;2024-02-23T04:09:44;7.59;63.52
79698;SHT31;69168;42.708;23.286;2024-02-23T04:12:10;7.50;63.69
79698;SHT31;69168;42.708;23.286;2024-02-23T04:14:36;7.54;63.49
79698;SHT31;69168;42.708;23.286;2024-02-23T04:17:05;7.49;63.64
79698;SHT31;69168;42.708;23.286;2024-02-23T04:19:30;7.92;62.35
79698;SHT31;69168;42.708;23.286;2024-02-23T04:21:56;7.75;62.60
79698;SHT31;69168;42.708;23.286;2024-02-23T04:24:21;7.64;63.51
79698;SHT31;69168;42.708;23.286;2024-02-23T04:26:47;7.60;63.53
79698;SHT31;69168;42.708;23.286;2024-02-23T04:29:12;7.87;62.69
79698;SHT31;69168;42.708;23.286;2024-02-23T04:31:38;7.64;63.14
79698;SHT31;69168;42.708;23.286;2024-02-23T04:34:04;7.75;63.13
79698;SHT31;69168;42.708;23.286;2024-02-23T04:36:29;7.67;62.78
79698;SHT31;69168;42.708;23.286;2024-02-23T04:38:55;7.51;63.57
79698;SHT31;69168;42.708;23.286;2024-02-23T04:41:20;7.53;63.73
79698;SHT31;69168;42.708;23.286;2024-02-23T04:43:50;7.34;64.29
79698;SHT31;69168;42.708;23.286;2024-02-23T04:46:15;7.23;64.70
79698;SHT31;69168;42.708;23.286;2024-02-23T04:48:41;7.63;63.75
79698;SHT31;69168;42.708;23.286;2024-02-23T04:51:07;7.33;64.57
79698;SHT31;69168;42.708;23.286;2024-02-23T04:53:38;7.22;64.74
79698;SHT31;69168;42.708;23.286;2024-02-23T04:56:04;7.32;64.35
79698;SHT31;69168;42.708;23.286;2024-02-23T04:58:30;7.44;63.89
79698;SHT31;69168;42.708;23.286;2024-02-23T05:00:56;7.34;64.10
79698;SHT31;69168;42.708;23.286;2024-02-23T05:03:21;7.16;64.93
79698;SHT31;69168;42.708;23.286;2024-02-23T05:05:47;7.16;64.94
79698;SHT31;69168;42.708;23.286;2024-02-23T05:08:13;7.24;64.73
79698;SHT31;69168;42.708;23.286;2024-02-23T05:10:38;7.19;64.70
79698;SHT31;69168;42.708;23.286;2024-02-23T05:13:04;7.19;64.72
79698;SHT31;69168;42.708;23.286;2024-02-23T05:15:30;7.13;65.08
79698;SHT31;69168;42.708;23.286;2024-02-23T05:17:55;7.06;65.25
79698;SHT31;69168;42.708;23.286;2024-02-23T05:20:21;7.34;64.63
79698;SHT31;69168;42.708;23.286;2024-02-23T05:22:47;7.37;63.90
79698;SHT31;69168;42.708;23.286;2024-02-23T05:25:13;7.04;65.20
79698;SHT31;69168;42.708;23.286;2024-02-23T05:27:39;7.29;64.47
79698;SHT31;69168;42.708;23.286;2024-02-23T05:30:05;7.11;64.39
79698;SHT31;69168;42.708;23.286;2024-02-23T05:32:31;6.99;64.79
79698;SHT31;69168;42.708;23.286;2024-02-23T05:34:57;7.09;64.73
79698;SHT31;69168;42.708;23.286;2024-02-23T05:37:22;6.87;65.03
79698;SHT31;69168;42.708;23.286;2024-02-23T05:39:49;6.87;65.24
79698;SHT31;69168;42.708;23.286;2024-02-23T05:42:14;7.06;64.53
79698;SHT31;69168;42.708;23.286;2024-02-23T05:44:43;7.01;64.53
79698;SHT31;69168;42.708;23.286;2024-02-23T05:47:10;6.91;65.04
79698;SHT31;69168;42.708;23.286;2024-02-23T05:49:36;6.94;65.22
79698;SHT31;69168;42.708;23.286;2024-02-23T05:52:01;7.13;64.46
79698;SHT31;69168;42.708;23.286;2024-02-23T05:54:27;7.22;64.54
79698;SHT31;69168;42.708;23.286;2024-02-23T05:56:52;7.19;64.24
79698;SHT31;69168;42.708;23.286;2024-02-23T05:59:18;7.06;64.86
79698;SHT31;69168;42.708;23.286;2024-02-23T06:01:43;7.02;64.99
79698;SHT31;69168;42.708;23.286;2024-02-23T06:04:09;7.06;64.80
79698;SHT31;69168;42.708;23.286;2024-02-23T06:06:34;7.19;64.50
79698;SHT31;69168;42.708;23.286;2024-02-23T06:09:00;7.33;63.98
79698;SHT31;69168;42.708;23.286;2024-02-23T06:11:26;7.26;64.41
79698;SHT31;69168;42.708;23.286;2024-02-23T06:13:51;7.36;64.36
79698;SHT31;69168;42.708;23.286;2024-02-23T06:16:17;7.29;64.56
79698;SHT31;69168;42.708;23.286;2024-02-23T06:18:42;7.26;64.53
79698;SHT31;69168;42.708;23.286;2024-02-23T06:21:15;7.29;64.18
79698;SHT31;69168;42.708;23.286;2024-02-23T06:23:41;7.36;64.13
79698;SHT31;69168;42.708;23.286;2024-02-23T06:26:07;7.34;64.36
79698;SHT31;69168;42.708;23.286;2024-02-23T06:28:32;7.42;64.12
79698;SHT31;69168;42.708;23.286;2024-02-23T06:30:58;7.57;63.39
79698;SHT31;69168;42.708;23.286;2024-02-23T06:33:24;7.79;63.40
79698;SHT31;69168;42.708;23.286;2024-02-23T06:35:50;7.73;63.16
79698;SHT31;69168;42.708;23.286;2024-02-23T06:38:15;7.91;62.22
79698;SHT31;69168;42.708;23.286;2024-02-23T06:40:41;7.74;62.64
79698;SHT31;69168;42.708;23.286;2024-02-23T06:43:07;7.61;63.04
79698;SHT31;69168;42.708;23.286;2024-02-23T06:45:32;7.59;63.76
79698;SHT31;69168;42.708;23.286;2024-02-23T06:47:58;7.91;62.77
79698;SHT31;69168;42.708;23.286;2024-02-23T06:50:23;7.92;62.76
79698;SHT31;69168;42.708;23.286;2024-02-23T06:52:49;7.78;62.94
79698;SHT31;69168;42.708;23.286;2024-02-23T06:55:15;7.71;64.62
79698;SHT31;69168;42.708;23.286;2024-02-23T06:57:41;7.78;64.12
79698;SHT31;69168;42.708;23.286;2024-02-23T07:00:07;7.94;62.98
79698;SHT31;69168;42.708;23.286;2024-02-23T07:02:33;7.99;63.13
79698;SHT31;69168;42.708;23.286;2024-02-23T07:05:02;8.05;62.67
79698;SHT31;69168;42.708;23.286;2024-02-23T07:07:30;8.03;63.03
79698;SHT31;69168;42.708;23.286;2024-02-23T07:09:56;8.06;62.75
79698;SHT31;69168;42.708;23.286;2024-02-23T07:12:21;8.15;62.61
79698;SHT31;69168;42.708;23.286;2024-02-23T07:14:48;8.16;62.47
79698;SHT31;69168;42.708;23.286;2024-02-23T07:17:17;8.19;62.64
79698;SHT31;69168;42.708;23.286;2024-02-23T07:19:43;8.26;62.65
79698;SHT31;69168;42.708;23.286;2024-02-23T07:22:08;8.34;62.48
79698;SHT31;69168;42.708;23.286;2024-02-23T07:24:34;8.37;62.17
79698;SHT31;69168;42.708;23.286;2024-02-23T07:26:59;8.42;61.94
79698;SHT31;69168;42.708;23.286;2024-02-23T07:29:25;8.50;61.65
79698;SHT31;69168;42.708;23.286;2024-02-23T07:31:53;8.54;62.14
79698;SHT31;69168;42.708;23.286;2024-02-23T07:34:19;8.78;61.68
79698;SHT31;69168;42.708;23.286;2024-02-23T07:36:45;8.54;62.08
79698;SHT31;69168;42.708;23.286;2024-02-23T07:39:11;8.54;62.67
79698;SHT31;69168;42.708;23.286;2024-02-23T07:41:37;8.56;63.64
79698;SHT31;69168;42.708;23.286;2024-02-23T07:44:04;8.87;63.06
79698;SHT31;69168;42.708;23.286;2024-02-23T07:46:29;8.97;62.68
79698;SHT31;69168;42.708;23.286;2024-02-23T07:48:55;8.85;62.74
79698;SHT31;69168;42.708;23.286;2024-02-23T07:51:20;8.80;63.70
79698;SHT31;69168;42.708;23.286;2024-02-23T07:53:46;9.18;62.91
79698;SHT31;69168;42.708;23.286;2024-02-23T07:56:11;9.02;63.13
79698;SHT31;69168;42.708;23.286;2024-02-23T07:58:38;9.19;62.69
79698;SHT31;69168;42.708;23.286;2024-02-23T08:01:03;9.06;63.00
79698;SHT31;69168;42.708;23.286;2024-02-23T08:03:29;9.20;63.28
79698;SHT31;69168;42.708;23.286;2024-02-23T08:05:55;9.06;63.24
79698;SHT31;69168;42.708;23.286;2024-02-23T08:08:20;9.01;63.81
79698;SHT31;69168;42.708;23.286;2024-02-23T08:10:48;9.19;64.12
79698;SHT31;69168;42.708;23.286;2024-02-23T08:13:13;9.32;63.51
79698;SHT31;69168;42.708;23.286;2024-02-23T08:15:39;9.48;63.24
79698;SHT31;69168;42.708;23.286;2024-02-23T08:18:04;9.70;62.78
79698;SHT31;69168;42.708;23.286;2024-02-23T08:20:30;9.63;62.69
79698;SHT31;69168;42.708;23.286;2024-02-23T08:22:55;9.67;62.86
79698;SHT31;69168;42.708;23.286;2024-02-23T08:25:21;9.69;62.50
79698;SHT31;69168;42.708;23.286;2024-02-23T08:27:47;9.78;62.70
79698;SHT31;69168;42.708;23.286;2024-02-23T08:30:13;9.82;63.21
79698;SHT31;69168;42.708;23.286;2024-02-23T08:32:40;9.88;63.40
79698;SHT31;69168;42.708;23.286;2024-02-23T08:35:08;9.99;63.57
79698;SHT31;69168;42.708;23.286;2024-02-23T08:37:34;10.26;62.49
79698;SHT31;69168;42.708;23.286;2024-02-23T08:40:00;10.37;61.45
79698;SHT31;69168;42.708;23.286;2024-02-23T08:42:26;10.45;61.39
79698;SHT31;69168;42.708;23.286;2024-02-23T08:44:51;10.49;61.59
79698;SHT31;69168;42.708;23.286;2024-02-23T08:47:19;10.50;61.48
79698;SHT31;69168;42.708;23.286;2024-02-23T08:49:45;10.64;60.19
79698;SHT31;69168;42.708;23.286;2024-02-23T08:52:11;10.78;60.31
79698;SHT31;69168;42.708;23.286;2024-02-23T08:54:36;10.78;60.31
79698;SHT31;69168;42.708;23.286;2024-02-23T08:57:03;10.85;59.35
79698;SHT31;69168;42.708;23.286;2024-02-23T08:59:29;11.05;58.05
79698;SHT31;69168;42.708;23.286;2024-02-23T09:01:54;11.18;58.13
79698;SHT31;69168;42.708;23.286;2024-02-23T09:04:20;11.18;58.92
79698;SHT31;69168;42.708;23.286;2024-02-23T09:06:45;11.26;58.05
79698;SHT31;69168;42.708;23.286;2024-02-23T09:09:11;11.42;57.13
79698;SHT31;69168;42.708;23.286;2024-02-23T09:11:37;11.84;55.83
79698;SHT31;69168;42.708;23.286;2024-02-23T09:14:03;12.09;53.58
79698;SHT31;69168;42.708;23.286;2024-02-23T09:16:29;11.90;54.47
79698;SHT31;69168;42.708;23.286;2024-02-23T09:18:54;11.99;54.22
79698;SHT31;69168;42.708;23.286;2024-02-23T09:21:20;12.01;54.87
79698;SHT31;69168;42.708;23.286;2024-02-23T09:23:45;12.21;53.44
79698;SHT31;69168;42.708;23.286;2024-02-23T09:26:11;12.24;52.71
79698;SHT31;69168;42.708;23.286;2024-02-23T09:28:37;12.45;52.54
79698;SHT31;69168;42.708;23.286;2024-02-23T09:31:07;12.50;51.90
79698;SHT31;69168;42.708;23.286;2024-02-23T09:33:33;12.63;52.85
79698;SHT31;69168;42.708;23.286;2024-02-23T09:35:58;12.61;52.42
79698;SHT31;69168;42.708;23.286;2024-02-23T09:38:25;12.77;51.98
79698;SHT31;69168;42.708;23.286;2024-02-23T09:40:51;12.83;51.32
79698;SHT31;69168;42.708;23.286;2024-02-23T09:43:17;12.90;50.39
79698;SHT31;69168;42.708;23.286;2024-02-23T09:45:45;12.85;50.79
79698;SHT31;69168;42.708;23.286;2024-02-23T09:48:12;12.97;50.87
79698;SHT31;69168;42.708;23.286;2024-02-23T09:50:40;12.81;51.13
79698;SHT31;69168;42.708;23.286;2024-02-23T09:53:07;13.11;50.54
79698;SHT31;69168;42.708;23.286;2024-02-23T09:55:35;12.90;50.53
79698;SHT31;69168;42.708;23.286;2024-02-23T09:58:02;12.85;51.01
79698;SHT31;69168;42.708;23.286;2024-02-23T10:00:29;13.14;49.90
79698;SHT31;69168;42.708;23.286;2024-02-23T10:02:55;13.34;50.60
79698;SHT31;69168;42.708;23.286;2024-02-23T10:05:23;13.49;49.30
79698;SHT31;69168;42.708;23.286;2024-02-23T10:07:54;13.69;48.50
79698;SHT31;69168;42.708;23.286;2024-02-23T10:10:24;13.73;48.32
79698;SHT31;69168;42.708;23.286;2024-02-23T10:12:54;14.00;46.83
79698;SHT31;69168;42.708;23.286;2024-02-23T10:15:20;14.21;46.51
79698;SHT31;69168;42.708;23.286;2024-02-23T10:17:45;14.18;47.36
79698;SHT31;69168;42.708;23.286;2024-02-23T10:20:11;14.33;46.54
79698;SHT31;69168;42.708;23.286;2024-02-23T10:22:36;14.63;45.99
79698;SHT31;69168;42.708;23.286;2024-02-23T10:25:02;14.93;45.68
79698;SHT31;69168;42.708;23.286;2024-02-23T10:27:27;15.01;45.04
79698;SHT31;69168;42.708;23.286;2024-02-23T10:29:53;15.08;44.66
79698;SHT31;69168;42.708;23.286;2024-02-23T10:32:19;14.93;44.92
79698;SHT31;69168;42.708;23.286;2024-02-23T10:34:48;14.86;45.28
79698;SHT31;69168;42.708;23.286;2024-02-23T10:37:15;14.94;44.91
79698;SHT31;69168;42.708;23.286;2024-02-23T10:39:41;15.00;43.67
79698;SHT31;69168;42.708;23.286;2024-02-23T10:42:09;15.01;44.56
79698;SHT31;69168;42.708;23.286;2024-02-23T10:44:37;15.00;43.81
79698;SHT31;69168;42.708;23.286;2024-02-23T10:47:04;15.12;43.52
79698;SHT31;69168;42.708;23.286;2024-02-23T10:49:29;14.87;44.23
79698;SHT31;69168;42.708;23.286;2024-02-23T10:51:56;14.76;44.82
79698;SHT31;69168;42.708;23.286;2024-02-23T10:54:22;14.70;44.69
79698;SHT31;69168;42.708;23.286;2024-02-23T10:56:50;14.98;44.74
79698;SHT31;69168;42.708;23.286;2024-02-23T10:59:17;15.15;43.66
79698;SHT31;69168;42.708;23.286;2024-02-23T11:01:54;15.10;43.69
79698;SHT31;69168;42.708;23.286;2024-02-23T11:04:23;15.15;44.04
79698;SHT31;69168;42.708;23.286;2024-02-23T11:06:53;15.48;42.97
79698;SHT31;69168;42.708;23.286;2024-02-23T11:09:23;15.39;42.77
79698;SHT31;69168;42.708;23.286;2024-02-23T11:11:56;15.41;43.33
79698;SHT31;69168;42.708;23.286;2024-02-23T11:14:38;15.58;43.27
79698;SHT31;69168;42.708;23.286;2024-02-23T11:17:04;15.74;41.96
79698;SHT31;69168;42.708;23.286;2024-02-23T11:19:37;15.53;42.48
79698;SHT31;69168;42.708;23.286;2024-02-23T11:22:03;15.70;41.70
79698;SHT31;69168;42.708;23.286;2024-02-23T11:24:30;15.97;41.15
79698;SHT31;69168;42.708;23.286;2024-02-23T11:26:56;15.96;41.94
79698;SHT31;69168;42.708;23.286;2024-02-23T11:29:21;15.86;41.52
79698;SHT31;69168;42.708;23.286;2024-02-23T11:31:47;15.87;41.66
79698;SHT31;69168;42.708;23.286;2024-02-23T11:34:13;16.08;41.25
79698;SHT31;69168;42.708;23.286;2024-02-23T11:36:38;16.20;40.34
79698;SHT31;69168;42.708;23.286;2024-02-23T11:39:04;16.35;40.38
79698;SHT31;69168;42.708;23.286;2024-02-23T11:41:30;16.26;40.26
79698;SHT31;69168;42.708;23.286;2024-02-23T11:43:56;16.38;40.23
79698;SHT31;69168;42.708;23.286;2024-02-23T11:46:24;16.65;39.89
79698;SHT31;69168;42.708;23.286;2024-02-23T11:48:50;16.47;40.33
79698;SHT31;69168;42.708;23.286;2024-02-23T11:51:25;16.11;41.20
79698;SHT31;69168;42.708;23.286;2024-02-23T11:53:55;15.90;40.86
79698;SHT31;69168;42.708;23.286;2024-02-23T11:56:23;15.70;41.49
79698;SHT31;69168;42.708;23.286;2024-02-23T11:58:49;15.66;41.77
79698;SHT31;69168;42.708;23.286;2024-02-23T12:01:14;15.77;41.79
79698;SHT31;69168;42.708;23.286;2024-02-23T12:03:40;15.82;41.30
79698;SHT31;69168;42.708;23.286;2024-02-23T12:06:10;15.76;41.58
79698;SHT31;69168;42.708;23.286;2024-02-23T12:08:35;15.77;41.86
79698;SHT31;69168;42.708;23.286;2024-02-23T12:11:08;15.73;42.11
79698;SHT31;69168;42.708;23.286;2024-02-23T12:13:38;15.62;42.47
79698;SHT31;69168;42.708;23.286;2024-02-23T12:16:04;15.41;42.06
79698;SHT31;69168;42.708;23.286;2024-02-23T12:18:32;15.41;42.29
79698;SHT31;69168;42.708;23.286;2024-02-23T12:21:05;15.52;41.83
79698;SHT31;69168;42.708;23.286;2024-02-23T12:23:43;15.49;41.60
79698;SHT31;69168;42.708;23.286;2024-02-23T12:26:10;15.59;41.71
79698;SHT31;69168;42.708;23.286;2024-02-23T12:28:38;15.43;41.71
79698;SHT31;69168;42.708;23.286;2024-02-23T12:31:05;15.45;42.00
79698;SHT31;69168;42.708;23.286;2024-02-23T12:33:31;15.48;42.14
79698;SHT31;69168;42.708;23.286;2024-02-23T12:35:56;15.50;42.57
79698;SHT31;69168;42.708;23.286;2024-02-23T12:38:23;15.50;42.75
79698;SHT31;69168;42.708;23.286;2024-02-23T12:40:48;15.63;41.39
79698;SHT31;69168;42.708;23.286;2024-02-23T12:43:14;15.73;41.08
79698;SHT31;69168;42.708;23.286;2024-02-23T12:45:40;15.80;40.40
79698;SHT31;69168;42.708;23.286;2024-02-23T12:48:06;15.82;40.93
79698;SHT31;69168;42.708;23.286;2024-02-23T12:50:31;15.89;40.74
79698;SHT31;69168;42.708;23.286;2024-02-23T12:52:57;15.91;40.99
79698;SHT31;69168;42.708;23.286;2024-02-23T12:55:23;15.87;41.22
79698;SHT31;69168;42.708;23.286;2024-02-23T12:57:48;15.94;40.52
79698;SHT31;69168;42.708;23.286;2024-02-23T13:00:15;16.03;40.21
79698;SHT31;69168;42.708;23.286;2024-02-23T13:02:41;16.07;40.39
79698;SHT31;69168;42.708;23.286;2024-02-23T13:05:06;16.00;40.32
79698;SHT31;69168;42.708;23.286;2024-02-23T13:07:35;15.98;40.50
79698;SHT31;69168;42.708;23.286;2024-02-23T13:10:04;16.11;40.33
79698;SHT31;69168;42.708;23.286;2024-02-23T13:12:29;16.11;40.65
79698;SHT31;69168;42.708;23.286;2024-02-23T13:14:55;16.22;40.39
79698;SHT31;69168;42.708;23.286;2024-02-23T13:17:21;16.21;40.14
79698;SHT31;69168;42.708;23.286;2024-02-23T13:19:46;16.33;40.07
79698;SHT31;69168;42.708;23.286;2024-02-23T13:22:12;16.13;39.17
79698;SHT31;69168;42.708;23.286;2024-02-23T13:24:37;16.05;39.23
79698;SHT31;69168;42.708;23.286;2024-02-23T13:27:05;15.94;39.23
79698;SHT31;69168;42.708;23.286;2024-02-23T13:29:31;15.86;39.05
79698;SHT31;69168;42.708;23.286;2024-02-23T13:31:56;15.82;39.25
79698;SHT31;69168;42.708;23.286;2024-02-23T13:34:22;15.90;38.98
79698;SHT31;69168;42.708;23.286;2024-02-23T13:36:47;16.00;39.78
79698;SHT31;69168;42.708;23.286;2024-02-23T13:39:15;15.87;40.86
79698;SHT31;69168;42.708;23.286;2024-02-23T13:41:41;15.87;40.78
79698;SHT31;69168;42.708;23.286;2024-02-23T13:44:06;15.90;40.95
79698;SHT31;69168;42.708;23.286;2024-02-23T13:46:37;15.91;40.67
79698;SHT31;69168;42.708;23.286;2024-02-23T13:49:05;15.94;39.54
79698;SHT31;69168;42.708;23.286;2024-02-23T13:51:34;15.98;40.02
79698;SHT31;69168;42.708;23.286;2024-02-23T13:54:00;15.93;40.07
79698;SHT31;69168;42.708;23.286;2024-02-23T13:56:26;16.11;39.30
79698;SHT31;69168;42.708;23.286;2024-02-23T13:58:51;16.11;39.45
79698;SHT31;69168;42.708;23.286;2024-02-23T14:01:17;16.44;38.75
79698;SHT31;69168;42.708;23.286;2024-02-23T14:03:43;16.77;38.40
79698;SHT31;69168;42.708;23.286;2024-02-23T14:06:08;16.72;38.21
79698;SHT31;69168;42.708;23.286;2024-02-23T14:08:35;16.75;37.85
79698;SHT31;69168;42.708;23.286;2024-02-23T14:11:03;16.94;37.32
79698;SHT31;69168;42.708;23.286;2024-02-23T14:13:31;17.02;37.38
79698;SHT31;69168;42.708;23.286;2024-02-23T14:15:57;17.42;36.63
79698;SHT31;69168;42.708;23.286;2024-02-23T14:18:23;17.58;35.97
79698;SHT31;69168;42.708;23.286;2024-02-23T14:20:48;17.25;36.58
79698;SHT31;69168;42.708;23.286;2024-02-23T14:23:14;17.56;36.13
79698;SHT31;69168;42.708;23.286;2024-02-23T14:25:40;17.75;35.83
79698;SHT31;69168;42.708;23.286;2024-02-23T14:28:05;17.45;36.02
79698;SHT31;69168;42.708;23.286;2024-02-23T14:30:31;17.45;36.24
79698;SHT31;69168;42.708;23.286;2024-02-23T14:32:56;17.59;35.73
79698;SHT31;69168;42.708;23.286;2024-02-23T14:35:22;18.06;35.29
79698;SHT31;69168;42.708;23.286;2024-02-23T14:37:47;18.11;35.24
79698;SHT31;69168;42.708;23.286;2024-02-23T14:40:13;18.24;35.25
79698;SHT31;69168;42.708;23.286;2024-02-23T14:42:40;18.47;35.33
79698;SHT31;69168;42.708;23.286;2024-02-23T14:45:06;18.76;34.39
79698;SHT31;69168;42.708;23.286;2024-02-23T14:47:32;18.86;34.10
79698;SHT31;69168;42.708;23.286;2024-02-23T14:49:59;18.95;34.30
79698;SHT31;69168;42.708;23.286;2024-02-23T14:52:25;18.56;34.99
79698;SHT31;69168;42.708;23.286;2024-02-23T14:54:50;18.34;35.21
79698;SHT31;69168;42.708;23.286;2024-02-23T14:57:16;17.73;35.93
79698;SHT31;69168;42.708;23.286;2024-02-23T14:59:41;17.58;36.31
79698;SHT31;69168;42.708;23.286;2024-02-23T15:02:21;17.31;36.95
79698;SHT31;69168;42.708;23.286;2024-02-23T15:04:47;17.04;37.42
79698;SHT31;69168;42.708;23.286;2024-02-23T15:07:13;16.90;37.97
79698;SHT31;69168;42.708;23.286;2024-02-23T15:09:39;16.83;37.77
79698;SHT31;69168;42.708;23.286;2024-02-23T15:12:05;16.60;38.80
79698;SHT31;69168;42.708;23.286;2024-02-23T15:14:30;16.45;38.66
79698;SHT31;69168;42.708;23.286;2024-02-23T15:16:56;16.44;38.88
79698;SHT31;69168;42.708;23.286;2024-02-23T15:19:21;16.41;38.89